Accueil
METAR-TAF:

METAR-TAF

Aéroports :

Aéroport Santander Seve Ballesteros

Santander, Espagne

latitude: 43-26N, longitude: 003-49W, altitude: 6 m

Observation

Le bulletin a été fait il y a 21 minutes, à 11:00 UTC
Vent 10 kt de nord-est, variant entre nord et est
Température 14°C
Humidité 72%
Pression 1023 hPa
Visibilité 10 km ou plus
pas de nuages en-dessous de 1500 mètres et pas de cumulonimbus.

METAR: LEXJ 181100Z 05010KT 350V090 CAVOK 14/09 Q1023

Heure: 13:21 (11:21 UTC)

Prévision

Le bulletin a été fait il y a 3 heures et 21 minutes, à 08:00 UTC
Prévision valable du 18 à 09 UTC au 19 à 09 UTC
Vent 5 kt de direction variable
Visibilité 10 km ou plus
Quelques nuages à une hauteur de 4500 ft
Temporairement
du 18 à 10 UTC au 18 à 20 UTC
Vent 12 kt de est/nord-est

TAF: LEXJ 180800Z 1809/1909 VRB05KT 9999 FEW045 TX17/1814Z TN03/1905Z TEMPO 1810/1820 06012KT

Observations et prévisions météorologiques de plus de 4000 aéroports (messages METAR et TAF).

Les stations disponibles sont représentées par des disques jaunes et rouges sur la carte.

Passer la souris dessus pour voir le nom de la station.

Cliquer dessus pour voir les observations et prévisions météorologiques.

Pour changer de carte: cliquez sur les boutons verts avec une croix noire pour zoomer, sur le bouton vert avec un tiret pour effectuer un zoom arrière, ou sur les flèches vertes pour les cartes adjacentes.


METAR-TAF: